Latest Weather Observations for Mount Moornapa

IDV60801

Issued at 1:42 am EST Monday 17 June 2019 (issued every 10 minutes, with the page automatically refreshed every 10 minutes)

About weather observations | Map of weather stations | Latest weather observations for VIC | Other Formats
Station Details ID: 085296 Name: MOUNT MOORNAPA Lat: -37.75 Lon: 147.14 Height: 480.0 m
Data from the previous 72 hours. | See also: Recent months at Mount Moornapa
Date/Time
EST
Temp
°C
App
Temp
°C
Dew
Point
°C
Rel
Hum
%
Delta-T
°C
Wind Press
QNH
hPa
Press
MSL
hPa
Rain since
9am
mm
Dir  Spd
km/h
Gust
km/h
Spd
kts
Gust
kts
17/01:30am 7.3 3.4 3.5 77 1.7 N 13 17 7 9 - - 0.0
17/01:00am 7.0 3.1 3.6 79 1.5 N 13 17 7 9 - - 0.0
17/12:30am 7.5 3.7 3.7 77 1.7 N 13 17 7 9 - - 0.0
17/12:00am 7.8 3.6 4.0 77 1.7 N 15 19 8 10 - - 0.0
 
Date/Time
EST
Temp
°C
App
Temp
°C
Dew
Point
°C
Rel
Hum
%
Delta-T
°C
Wind Press
QNH
hPa
Press
MSL
hPa
Rain since
9am
mm
Dir  Spd
km/h
Gust
km/h
Spd
kts
Gust
kts
16/11:30pm 8.1 4.8 4.3 77 1.7 N 11 13 6 7 - - 0.0
16/11:00pm 8.7 6.2 4.5 75 1.9 N 7 9 4 5 - - 0.0
16/10:30pm 8.3 5.0 4.5 77 1.7 N 11 11 6 6 - - 0.0
16/10:00pm 7.1 3.3 3.9 80 1.4 N 13 15 7 8 - - 0.0
16/09:30pm 8.0 4.7 4.8 80 1.5 N 11 13 6 7 - - 0.0
16/09:00pm 7.5 5.0 4.8 83 1.2 N 7 9 4 5 - - 0.0
16/08:30pm 8.7 7.6 5.3 79 1.6 CALM 0 0 0 0 - - 0.0
16/08:00pm 8.7 7.6 4.9 77 1.7 CALM 0 0 0 0 - - 0.0
16/07:30pm 9.2 7.7 5.0 75 1.9 NNE 2 2 1 1 - - 0.0
16/07:00pm 9.2 8.1 5.2 76 1.9 CALM 0 0 0 0 - - 0.0
16/06:30pm 8.8 7.7 5.2 78 1.7 CALM 0 2 0 1 - - 0.0
16/06:00pm 8.9 6.7 5.3 78 1.7 SE 6 6 3 3 - - 0.0
16/05:30pm 9.0 6.9 5.7 80 1.5 SE 6 6 3 3 - - 0.0
16/05:00pm 9.5 7.4 6.0 79 1.7 SE 6 7 3 4 - - 0.0
16/04:30pm 10.1 8.4 5.7 74 2.1 SE 4 4 2 2 - - 0.0
16/04:00pm 11.3 10.1 6.4 72 2.4 ESE 2 4 1 2 - - 0.0
16/03:30pm 11.4 10.5 6.1 70 2.5 CALM 0 0 0 0 - - 0.0
16/03:00pm 12.0 11.0 5.4 64 3.1 CALM 0 0 0 0 - - 0.0
16/02:30pm 11.8 10.8 5.7 66 2.9 CALM 0 0 0 0 - - 0.0
16/02:00pm 12.2 11.2 5.6 64 3.2 CALM 0 2 0 1 - - 0.0
16/01:30pm 12.3 11.1 4.8 60 3.5 CALM 0 4 0 2 - - 0.0
16/01:00pm 11.9 10.7 4.4 60 3.5 CALM 0 4 0 2 - - 0.0
16/12:30pm 11.9 10.6 4.2 59 3.6 CALM 0 0 0 0 - - 0.0
16/12:00pm 12.0 10.6 5.4 64 3.1 NNE 2 6 1 3 - - 0.0
16/11:30am 11.5 9.3 5.2 65 3.0 N 6 7 3 4 - - 0.0
16/11:00am 10.6 8.5 5.6 71 2.4 NNW 6 9 3 5 - - 0.0
16/10:30am 9.0 6.4 4.2 72 2.2 N 7 13 4 7 - - 0.0
16/10:00am 8.2 5.5 3.7 73 2.0 N 7 13 4 7 - - 0.0
16/09:30am 6.9 3.4 3.5 79 1.5 N 11 15 6 8 - - 0.0
16/09:00am 7.0 3.5 3.4 78 1.6 N 11 15 6 8 - - 0.0
16/08:30am 6.6 3.1 3.4 80 1.4 N 11 15 6 8 - - 0.0
16/08:00am 7.2 4.1 3.4 77 1.7 N 9 11 5 6 - - 0.0
16/07:30am 6.4 3.3 3.4 81 1.3 N 9 11 5 6 - - 0.0
16/07:00am 5.8 1.9 3.6 86 1.0 N 13 15 7 8 - - 0.0
16/06:30am 6.7 4.6 3.7 81 1.3 N 4 7 2 4 - - 0.0
16/06:00am 6.8 4.1 3.9 82 1.3 N 7 9 4 5 - - 0.0
16/05:30am 7.1 4.5 4.1 81 1.3 N 7 9 4 5 - - 0.0
16/05:00am 6.6 3.3 4.3 85 1.0 N 11 13 6 7 - - 0.0
16/04:30am 7.0 3.7 4.3 83 1.2 N 11 13 6 7 - - 0.0
16/04:00am 6.3 2.6 4.5 88 0.8 N 13 17 7 9 - - 0.0
16/03:30am 6.8 3.1 4.6 86 1.0 N 13 15 7 8 - - 0.0
16/03:00am 6.8 3.2 4.8 87 0.9 N 13 15 7 8 - - 0.0
16/02:30am 7.3 4.6 5.8 90 0.7 N 9 13 5 7 - - 0.0
16/02:00am 7.0 4.9 6.7 98 0.1 NNE 7 11 4 6 - - 0.0
16/01:30am 7.2 5.1 6.6 96 0.3 NNE 7 11 4 6 - - 0.0
16/01:00am 7.8 5.9 6.9 94 0.4 NE 6 6 3 3 - - 0.0
16/12:30am 8.1 7.0 6.9 92 0.6 NE 2 6 1 3 - - 0.0
16/12:00am 8.1 7.4 6.9 92 0.6 CALM 0 0 0 0 - - 0.0
 
Date/Time
EST
Temp
°C
App
Temp
°C
Dew
Point
°C
Rel
Hum
%
Delta-T
°C
Wind Press
QNH
hPa
Press
MSL
hPa
Rain since
9am
mm
Dir  Spd
km/h
Gust
km/h
Spd
kts
Gust
kts
15/11:30pm 8.1 7.4 7.0 93 0.5 CALM 0 0 0 0 - - 0.0
15/11:00pm 8.1 7.4 7.0 93 0.5 CALM 0 0 0 0 - - 0.0
15/10:30pm 8.3 7.6 7.1 92 0.6 CALM 0 0 0 0 - - 0.0
15/10:00pm 8.4 7.4 7.3 93 0.5 SSE 2 4 1 2 - - 0.0
15/09:30pm 8.2 6.8 7.1 93 0.5 SSE 4 4 2 2 - - 0.0
15/09:00pm 8.3 6.9 7.2 93 0.5 SSE 4 6 2 3 - - 0.0
15/08:30pm 8.3 6.9 7.2 93 0.5 SSE 4 6 2 3 - - 0.0
15/08:00pm 8.8 7.1 7.6 92 0.6 SSE 6 6 3 3 - - 0.0
15/07:30pm 9.2 7.9 7.8 91 0.7 SSE 4 6 2 3 - - 0.0
15/07:00pm 9.3 8.0 7.7 90 0.8 SSE 4 6 2 3 - - 0.0
15/06:30pm 9.3 8.1 7.9 91 0.7 SSE 4 6 2 3 - - 0.0
15/06:00pm 9.2 7.9 7.8 91 0.7 SE 4 6 2 3 - - 0.0
15/05:30pm 9.2 7.9 7.5 89 0.8 SE 4 6 2 3 - - 0.0
15/05:00pm 9.5 7.7 7.1 85 1.2 SE 6 6 3 3 - - 0.0
15/04:30pm 10.2 9.1 7.1 81 1.5 SSE 2 4 1 2 - - 0.0
15/04:00pm 10.1 9.0 6.8 80 1.6 SE 2 4 1 2 - - 0.0
15/03:30pm 10.6 9.1 6.9 78 1.8 SE 4 4 2 2 - - 0.0
15/03:00pm 11.5 10.9 7.2 75 2.1 CALM 0 4 0 2 - - 0.0
15/02:30pm 11.9 11.3 7.6 75 2.1 CALM 0 0 0 0 - - 0.0
15/02:00pm 12.2 11.5 6.9 70 2.6 CALM 0 0 0 0 - - 0.0
15/01:30pm 12.3 10.6 6.1 66 3.0 S 4 6 2 3 - - 0.0
15/01:00pm 12.7 11.5 6.5 66 3.0 S 2 6 1 3 - - 0.0
15/12:30pm 12.4 10.7 5.8 64 3.2 S 4 6 2 3 - - 0.0
15/12:00pm 11.7 10.6 6.8 72 2.4 SSE 2 6 1 3 - - 0.0
15/11:30am 11.5 10.2 6.0 69 2.6 SSE 2 6 1 3 - - 0.0
15/11:00am 11.3 9.9 5.4 67 2.8 SSE 2 2 1 1 - - 0.0
15/10:30am 10.7 8.8 4.8 67 2.7 N 4 6 2 3 - - 0.0
15/10:00am 10.5 8.0 4.6 67 2.7 NW 7 9 4 5 - - 0.0
15/09:30am 9.6 6.4 5.0 73 2.1 NNW 11 17 6 9 - - 0.0
15/09:00am 9.1 6.1 4.3 72 2.2 NNW 9 13 5 7 - - 3.4
15/08:30am 8.8 5.4 3.8 71 2.2 NW 11 13 6 7 - - 3.4
15/08:00am 7.3 4.3 3.9 79 1.5 NW 9 15 5 8 - - 3.4
15/07:30am 7.4 3.7 4.4 81 1.3 NW 13 19 7 10 - - 3.4
15/07:00am 7.8 4.9 4.7 81 1.4 NNW 9 15 5 8 - - 3.4
15/06:30am 7.2 4.9 5.8 91 0.6 NW 7 15 4 8 - - 3.2
15/06:00am 7.4 4.8 6.2 92 0.6 NW 9 17 5 9 - - 3.2
15/05:30am 7.3 5.3 7.0 98 0.1 NNW 7 15 4 8 - - 3.2
15/05:00am 7.3 4.9 7.2 99 0.0 NW 9 13 5 7 - - 3.2
15/04:30am 7.3 5.3 7.2 99 0.0 NW 7 9 4 5 - - 3.2
15/04:00am 7.1 5.3 7.0 99 0.0 NNW 6 7 3 4 - - 3.2
15/03:30am 7.5 5.2 7.4 99 0.0 N 9 11 5 6 - - 3.2
15/03:00am 7.8 5.9 7.7 99 0.0 N 7 9 4 5 - - 3.2
15/02:30am 7.8 5.9 7.7 99 0.0 N 7 9 4 5 - - 3.2
15/02:00am 7.9 6.6 7.8 99 0.0 N 4 6 2 3 - - 3.0
15/01:30am 8.2 7.0 8.1 99 0.0 N 4 7 2 4 - - 3.0
15/01:00am 8.0 6.4 7.9 99 0.0 W 6 9 3 5 - - 3.0
15/12:30am 8.3 6.7 8.2 99 0.0 WSW 6 15 3 8 - - 3.0
15/12:00am 8.3 6.7 8.2 99 0.0 WSW 6 11 3 6 - - 2.4
 
Date/Time
EST
Temp
°C
App
Temp
°C
Dew
Point
°C
Rel
Hum
%
Delta-T
°C
Wind Press
QNH
hPa
Press
MSL
hPa
Rain since
9am
mm
Dir  Spd
km/h
Gust
km/h
Spd
kts
Gust
kts
14/11:30pm 8.5 7.0 8.4 99 0.0 SW 6 9 3 5 - - 2.2
14/11:00pm 8.6 7.1 8.5 99 0.0 SSW 6 11 3 6 - - 1.6
14/10:30pm 8.6 7.1 8.5 99 0.0 S 6 9 3 5 - - 1.0
14/10:00pm 8.6 6.9 8.2 97 0.2 S 7 13 4 7 - - 0.2
14/09:30pm 9.5 7.2 5.9 78 1.7 S 7 13 4 7 - - 0.0
14/09:00pm 10.7 8.2 4.8 67 2.7 NW 7 11 4 6 - - 0.0
14/08:30pm 10.6 7.0 4.9 68 2.7 NNW 13 20 7 11 - - 0.0
14/08:00pm 10.7 7.1 5.0 68 2.7 NNW 13 20 7 11 - - 0.0
14/07:30pm 10.7 6.7 5.0 68 2.7 NNW 15 22 8 12 - - 0.0
14/07:00pm 10.9 7.0 5.2 68 2.7 NNW 15 24 8 13 - - 0.0
14/06:30pm 11.0 7.8 5.1 67 2.8 NNW 11 19 6 10 - - 0.0
14/06:00pm 11.3 8.1 5.2 66 2.9 NNW 11 15 6 8 - - 0.0
14/05:30pm 11.9 9.5 5.3 64 3.1 NNW 7 17 4 9 - - 0.0
14/05:00pm 12.4 9.5 4.6 59 3.7 NNW 9 24 5 13 - - 0.0
14/04:30pm 14.0 11.4 4.3 52 4.6 NW 7 13 4 7 - - 0.0
14/04:00pm 14.3 11.8 4.9 53 4.5 NW 7 13 4 7 - - 0.0
14/03:30pm 14.9 12.0 4.9 51 4.8 NW 9 15 5 8 - - 0.0
14/03:00pm 15.2 12.0 5.1 51 4.9 NW 11 17 6 9 - - 0.0
14/02:30pm 15.5 12.3 5.1 50 5.0 NW 11 24 6 13 - - 0.0
14/02:00pm 15.5 11.5 5.1 50 5.0 NW 15 28 8 15 - - 0.0
14/01:30pm 15.2 11.4 4.0 47 5.3 NW 13 30 7 16 - - 0.0
14/01:00pm 13.1 11.3 5.3 59 3.7 WSW 4 11 2 6 - - 0.0
14/12:30pm 13.0 10.0 4.2 55 4.1 WNW 9 15 5 8 - - 0.0
14/12:00pm 13.1 10.2 4.8 57 3.9 NW 9 20 5 11 - - 0.0
14/11:30am 12.7 10.4 4.9 59 3.7 NW 6 17 3 9 - - 0.0
14/11:00am 12.1 9.2 4.8 61 3.4 WNW 9 19 5 10 - - 0.0
14/10:30am 11.6 8.6 4.3 61 3.4 WNW 9 26 5 14 - - 0.0
14/10:00am 10.6 8.0 4.3 65 2.9 NW 7 17 4 9 - - 0.0
14/09:30am 10.8 7.9 4.5 65 2.9 WNW 9 20 5 11 - - 0.0
14/09:00am 10.2 7.6 4.4 67 2.7 NW 7 15 4 8 - - 0.0
14/08:30am 10.5 7.5 4.2 65 2.9 WNW 9 19 5 10 - - 0.0
14/08:00am 10.0 7.1 4.6 69 2.5 NW 9 17 5 9 - - 0.0
14/07:30am 9.3 6.4 4.7 73 2.1 NW 9 19 5 10 - - 0.0
14/07:00am 9.3 6.5 5.1 75 1.9 NW 9 20 5 11 - - 0.0
14/06:30am 9.1 5.7 5.7 79 1.6 NNW 13 19 7 10 - - 0.0
14/06:00am 8.8 5.3 5.5 80 1.5 N 13 19 7 10 - - 0.0
14/05:30am 8.8 5.4 5.7 81 1.4 N 13 17 7 9 - - 0.0
14/05:00am 8.9 5.2 6.2 83 1.3 N 15 19 8 10 - - 0.0
14/04:30am 9.2 6.6 6.1 81 1.5 NNE 9 11 5 6 - - 0.0
14/04:00am 8.6 7.5 6.9 89 0.8 E 2 4 1 2 - - 0.0
14/03:30am 8.6 7.9 6.9 89 0.8 CALM 0 2 0 1 - - 0.0
14/03:00am 8.4 7.5 7.6 95 0.4 SSE 2 6 1 3 - - 0.0
14/02:30am 8.3 7.1 7.9 97 0.2 S 4 7 2 4 - - 0.0
14/02:00am 8.5 7.6 7.6 94 0.4 SSE 2 6 1 3 - - 0.0

Other formats

Comma delimited format used in spreadsheet applications
http://www.bom.gov.au/fwo/IDV60801/IDV60801.95913.axf

JavaScript Object Notation format (JSON) in row-major order
http://www.bom.gov.au/fwo/IDV60801/IDV60801.95913.json

Data quality

Most of these data are generated automatically and are frequently updated. Quality checks on data are not normally performed. It is possible for incorrect values to appear. Refer to information at About Latest Weather Observations and please check the disclaimer before using these data.